Time;durP1;ratioP1;P1;durP2;ratioP2;P2;SDS_P1;SDS_P2;PMS_P1;PMS_P2;Temp;Humidity;BMP_temperature;BMP_pressure;BME280_temperature;BME280_humidity;BME280_pressure;Samples;Min_cycle;Max_cycle;Signal;HPM_P1;HPM_P2
2023/03/29 00:01:23;;;;;;;1.08;0.70;;;8.70;70.80;;;;;;5041578;28;20098;-64
2023/03/29 00:03:50;;;;;;;0.57;0.57;;;8.70;71.50;;;;;;5051363;28;20049;-67
2023/03/29 00:06:20;;;;;;;4.30;1.00;;;8.70;71.00;;;;;;5046901;28;20033;-65
2023/03/29 00:08:50;;;;;;;1.23;0.90;;;8.70;71.00;;;;;;5027574;28;20131;-66
2023/03/29 00:11:16;;;;;;;0.93;0.70;;;8.70;71.00;;;;;;5041881;28;20170;-64
2023/03/29 00:13:43;;;;;;;2.67;0.60;;;8.70;71.10;;;;;;5051332;28;20021;-66
2023/03/29 00:16:09;;;;;;;1.63;0.65;;;8.70;71.00;;;;;;5044191;28;20017;-66
2023/03/29 00:18:34;;;;;;;0.90;0.60;;;8.70;70.90;;;;;;5042873;28;20037;-65
2023/03/29 00:21:01;;;;;;;4.53;0.88;;;8.70;71.00;;;;;;5049480;28;20021;-65
2023/03/29 00:23:26;;;;;;;2.67;0.80;;;8.70;70.90;;;;;;5043180;28;20041;-66
2023/03/29 00:25:53;;;;;;;1.33;0.60;;;8.70;70.90;;;;;;5043102;28;20029;-66
2023/03/29 00:28:18;;;;;;;1.38;0.90;;;8.70;71.00;;;;;;5046672;28;20029;-65
2023/03/29 00:30:45;;;;;;;2.58;1.00;;;8.80;71.00;;;;;;5048122;28;20376;-66
2023/03/29 00:33:11;;;;;;;1.48;0.80;;;8.80;70.90;;;;;;5046856;28;20040;-66
2023/03/29 00:35:38;;;;;;;0.63;0.60;;;8.70;70.80;;;;;;5046479;28;20059;-66
2023/03/29 00:38:05;;;;;;;1.17;0.90;;;8.70;70.80;;;;;;5036994;28;20035;-66
2023/03/29 00:40:31;;;;;;;0.88;0.85;;;8.80;71.00;;;;;;5041174;28;20033;-66
2023/03/29 00:42:57;;;;;;;1.08;0.88;;;8.80;71.00;;;;;;5045500;28;20040;-66
2023/03/29 00:45:26;;;;;;;0.75;0.50;;;8.80;71.00;;;;;;5035394;28;20022;-66
2023/03/29 00:48:01;;;;;;;7.60;1.13;;;8.80;71.00;;;;;;5049729;28;20025;-65
2023/03/29 00:50:58;;;;;;;0.70;0.70;;;8.80;71.10;;;;;;5050009;28;20017;-66
2023/03/29 00:53:34;;;;;;;1.30;0.82;;;8.80;71.20;;;;;;5037362;28;20056;-65
2023/03/29 00:56:10;;;;;;;0.95;0.73;;;8.80;71.30;;;;;;5045239;28;20179;-67
2023/03/29 00:58:46;;;;;;;1.10;0.88;;;8.70;71.30;;;;;;5043817;28;20564;-66
2023/03/29 01:01:16;;;;;;;2.45;1.10;;;8.70;71.30;;;;;;5040392;28;20080;-66
2023/03/29 01:03:46;;;;;;;1.27;0.70;;;8.70;71.40;;;;;;5042665;28;20074;-65
2023/03/29 01:06:14;;;;;;;1.23;0.90;;;8.70;71.30;;;;;;5044155;28;20381;-65
2023/03/29 01:08:53;;;;;;;1.70;1.02;;;8.70;71.30;;;;;;5046553;28;20448;-64
2023/03/29 01:11:33;;;;;;;1.63;1.10;;;8.70;71.40;;;;;;5050120;28;20453;-67
2023/03/29 01:14:07;;;;;;;1.10;0.82;;;8.70;71.50;;;;;;5043391;28;20020;-65
2023/03/29 01:16:37;;;;;;;0.70;0.60;;;8.70;71.40;;;;;;5041531;28;20071;-66
2023/03/29 01:19:06;;;;;;;1.52;0.60;;;8.70;71.50;;;;;;5042147;28;20392;-65
2023/03/29 01:22:00;;;;;;;2.05;0.75;;;8.80;71.50;;;;;;5042856;28;20388;-66
2023/03/29 01:24:40;;;;;;;1.33;0.85;;;8.80;71.40;;;;;;5038257;28;20048;-66
2023/03/29 01:27:27;;;;;;;0.85;0.85;;;8.80;71.40;;;;;;5048258;28;20025;-66
2023/03/29 01:30:00;;;;;;;1.40;0.68;;;8.80;71.30;;;;;;5046360;28;20033;-66
2023/03/29 01:32:40;;;;;;;3.42;0.90;;;8.80;71.30;;;;;;5048857;28;20025;-66
2023/03/29 01:35:14;;;;;;;1.60;0.60;;;8.80;71.40;;;;;;5048519;28;20068;-66
2023/03/29 01:37:50;;;;;;;1.35;0.90;;;8.80;71.60;;;;;;5045207;28;20162;-66
2023/03/29 01:40:16;;;;;;;2.50;1.00;;;8.80;71.60;;;;;;5048008;28;20201;-66
2023/03/29 01:43:03;;;;;;;0.85;0.60;;;8.80;71.70;;;;;;5041747;28;20021;-66
2023/03/29 01:45:46;;;;;;;1.48;0.80;;;8.80;71.60;;;;;;5038080;28;20056;-66
2023/03/29 01:48:34;;;;;;;0.73;0.60;;;8.80;71.60;;;;;;5048671;28;20028;-65
2023/03/29 01:51:10;;;;;;;6.78;1.27;;;8.80;71.60;;;;;;5046044;28;20029;-65
2023/03/29 01:53:51;;;;;;;2.15;1.13;;;8.80;71.60;;;;;;5050265;28;20039;-65
2023/03/29 01:56:21;;;;;;;1.02;0.75;;;8.90;71.50;;;;;;5037360;28;20346;-67
2023/03/29 01:58:54;;;;;;;1.00;0.70;;;8.80;71.50;;;;;;5049970;28;20464;-66
2023/03/29 02:01:26;;;;;;;1.83;0.98;;;8.80;71.60;;;;;;5043306;28;20072;-65
2023/03/29 02:03:56;;;;;;;2.10;1.13;;;8.90;71.60;;;;;;5048581;28;20044;-66
2023/03/29 02:06:26;;;;;;;0.55;0.55;;;8.90;71.50;;;;;;5042083;28;20044;-66
2023/03/29 02:08:53;;;;;;;2.20;0.95;;;8.90;71.40;;;;;;5046258;28;20056;-65
2023/03/29 02:11:20;;;;;;;0.70;0.70;;;8.90;71.40;;;;;;5037438;28;20041;-65
2023/03/29 02:13:46;;;;;;;3.33;0.95;;;8.90;71.30;;;;;;5049157;28;20037;-66
2023/03/29 02:16:13;;;;;;;2.55;1.23;;;9.00;71.20;;;;;;5050150;28;20384;-64
2023/03/29 02:18:43;;;;;;;1.05;0.77;;;8.90;71.10;;;;;;5052023;28;20051;-66
2023/03/29 02:21:15;;;;;;;0.77;0.70;;;8.90;71.10;;;;;;5047994;28;20041;-66
2023/03/29 02:23:45;;;;;;;1.67;0.98;;;9.00;71.10;;;;;;5049150;28;20142;-65
2023/03/29 02:26:13;;;;;;;1.60;0.88;;;9.00;71.00;;;;;;5049754;28;20441;-66
2023/03/29 02:28:40;;;;;;;2.60;1.20;;;8.90;70.90;;;;;;5048457;28;20060;-66
2023/03/29 02:31:19;;;;;;;1.48;0.77;;;8.90;71.00;;;;;;5043160;28;20447;-65
2023/03/29 02:33:50;;;;;;;1.05;0.60;;;8.90;71.00;;;;;;5050356;28;20021;-67
2023/03/29 02:36:39;;;;;;;1.23;1.10;;;8.90;71.00;;;;;;5044480;28;20037;-67
2023/03/29 02:39:07;;;;;;;1.00;0.75;;;9.00;71.10;;;;;;5051020;28;20031;-65
2023/03/29 02:41:35;;;;;;;1.77;0.93;;;8.90;71.10;;;;;;5034992;28;20544;-66
2023/03/29 02:44:06;;;;;;;0.63;0.63;;;8.90;71.00;;;;;;5037692;28;20021;-66
2023/03/29 02:46:32;;;;;;;1.67;1.13;;;8.90;71.00;;;;;;5046485;28;20424;-64
2023/03/29 02:48:59;;;;;;;1.27;0.73;;;8.90;71.10;;;;;;5043714;28;20025;-66
2023/03/29 02:51:36;;;;;;;3.38;1.00;;;8.90;71.50;;;;;;5045720;28;20032;-66
2023/03/29 02:54:11;;;;;;;2.35;0.70;;;8.90;71.60;;;;;;5045423;28;20041;-66
2023/03/29 02:56:46;;;;;;;1.23;0.90;;;8.90;72.40;;;;;;5039058;28;20105;-66
2023/03/29 02:59:13;;;;;;;0.60;0.60;;;8.90;71.80;;;;;;5047295;28;20036;-66
2023/03/29 03:01:41;;;;;;;0.85;0.80;;;8.90;71.90;;;;;;5045387;28;20155;-66
2023/03/29 03:04:08;;;;;;;1.60;0.73;;;8.90;72.00;;;;;;5045874;28;20056;-67
2023/03/29 03:06:36;;;;;;;1.50;0.60;;;8.90;72.40;;;;;;5051387;28;20036;-66
2023/03/29 03:09:03;;;;;;;2.08;1.00;;;8.90;72.60;;;;;;5043192;28;20484;-65
2023/03/29 03:11:30;;;;;;;2.22;1.13;;;8.90;72.80;;;;;;5049146;28;20017;-66
2023/03/29 03:13:56;;;;;;;0.80;0.70;;;8.90;73.10;;;;;;5048199;28;20448;-66
2023/03/29 03:16:22;;;;;;;1.60;0.98;;;8.80;73.20;;;;;;5051286;28;20486;-66
2023/03/29 03:18:50;;;;;;;1.52;1.08;;;8.80;73.80;;;;;;5051251;28;20013;-66
2023/03/29 03:21:17;;;;;;;1.33;1.05;;;8.70;74.30;;;;;;5038575;28;20733;-66
2023/03/29 03:23:44;;;;;;;1.08;0.95;;;8.60;74.50;;;;;;5049554;28;20025;-65
2023/03/29 03:26:11;;;;;;;1.27;0.70;;;8.60;74.60;;;;;;5047875;28;20074;-66
2023/03/29 03:28:37;;;;;;;1.00;0.88;;;8.60;74.80;;;;;;5044996;28;20380;-66
2023/03/29 03:31:03;;;;;;;1.80;1.05;;;8.60;74.90;;;;;;5041935;28;20021;-66
2023/03/29 03:33:29;;;;;;;5.22;1.42;;;8.70;75.00;;;;;;5049705;28;20075;-66
2023/03/29 03:36:01;;;;;;;1.95;1.20;;;8.70;75.10;;;;;;5047701;28;20029;-67
2023/03/29 03:38:31;;;;;;;5.03;0.85;;;8.80;75.40;;;;;;5044165;28;20104;-67
2023/03/29 03:40:58;;;;;;;2.05;1.02;;;8.80;75.50;;;;;;5041553;28;20380;-66
2023/03/29 03:43:24;;;;;;;1.50;1.02;;;8.80;75.60;;;;;;5040494;28;20032;-65
2023/03/29 03:45:50;;;;;;;3.50;1.05;;;8.80;75.70;;;;;;5049150;28;20021;-66
2023/03/29 03:48:17;;;;;;;1.60;1.48;;;8.80;75.90;;;;;;5049795;28;20372;-65
2023/03/29 03:50:54;;;;;;;1.52;1.15;;;8.80;75.90;;;;;;5049924;28;20036;-66
2023/03/29 03:53:21;;;;;;;1.60;0.98;;;8.90;75.90;;;;;;5042806;28;20429;-65
2023/03/29 03:55:52;;;;;;;2.20;1.33;;;8.80;76.00;;;;;;5049911;28;20383;-67
2023/03/29 03:58:18;;;;;;;1.45;1.00;;;8.80;76.20;;;;;;5043077;28;20095;-66
2023/03/29 04:00:46;;;;;;;3.85;0.70;;;8.80;76.40;;;;;;5049514;28;20033;-66
2023/03/29 04:03:12;;;;;;;2.05;1.33;;;8.80;76.40;;;;;;5043654;28;20067;-67
2023/03/29 04:05:43;;;;;;;2.03;0.95;;;8.80;76.40;;;;;;5048004;28;20041;-67
2023/03/29 04:08:09;;;;;;;0.90;0.90;;;8.80;76.40;;;;;;5049623;28;20383;-66
2023/03/29 04:10:35;;;;;;;1.40;1.15;;;8.80;76.40;;;;;;5049465;28;20429;-66
2023/03/29 04:13:03;;;;;;;2.78;1.48;;;8.80;76.60;;;;;;5047127;28;20476;-66
2023/03/29 04:15:30;;;;;;;2.00;1.02;;;8.80;76.70;;;;;;5042547;28;20094;-67
2023/03/29 04:17:56;;;;;;;7.03;0.85;;;8.80;76.70;;;;;;5049967;28;20027;-67
2023/03/29 04:20:23;;;;;;;2.25;0.93;;;8.80;76.60;;;;;;5042528;28;20036;-66
2023/03/29 04:22:49;;;;;;;2.30;1.17;;;8.90;76.70;;;;;;5036865;28;20030;-66
2023/03/29 04:25:15;;;;;;;1.77;1.33;;;8.90;76.80;;;;;;5035229;28;20045;-66
2023/03/29 04:27:41;;;;;;;2.10;1.15;;;8.90;77.00;;;;;;5044070;28;20037;-66
2023/03/29 04:30:08;;;;;;;1.17;0.90;;;8.90;76.90;;;;;;5038579;28;20032;-66
2023/03/29 04:32:34;;;;;;;2.70;1.27;;;8.90;77.50;;;;;;5029758;28;20109;-66
2023/03/29 04:35:00;;;;;;;1.90;1.05;;;8.80;76.80;;;;;;5049701;28;20029;-66
2023/03/29 04:37:26;;;;;;;3.38;1.50;;;8.90;76.90;;;;;;5045721;28;20385;-65
2023/03/29 04:39:53;;;;;;;2.08;1.30;;;8.90;76.80;;;;;;5047858;28;20035;-65
2023/03/29 04:42:19;;;;;;;1.83;1.27;;;8.90;77.10;;;;;;5042664;28;20033;-66
2023/03/29 04:44:45;;;;;;;1.83;1.00;;;9.00;77.10;;;;;;5044939;28;20027;-64
2023/03/29 04:47:14;;;;;;;1.08;0.65;;;9.00;77.20;;;;;;5047854;28;20025;-66
2023/03/29 04:49:40;;;;;;;2.72;0.95;;;9.00;77.20;;;;;;5046176;28;20025;-66
2023/03/29 04:52:07;;;;;;;1.38;0.98;;;9.00;77.40;;;;;;5045848;28;20376;-66
2023/03/29 04:54:33;;;;;;;0.70;0.63;;;9.00;77.30;;;;;;5047266;28;20030;-66
2023/03/29 04:56:59;;;;;;;2.65;1.10;;;9.00;77.40;;;;;;5047648;28;20036;-66
2023/03/29 04:59:24;;;;;;;1.65;1.10;;;9.10;77.40;;;;;;5048551;28;20025;-66
2023/03/29 05:01:50;;;;;;;2.03;1.15;;;9.10;77.50;;;;;;5046482;28;20048;-65
2023/03/29 05:04:21;;;;;;;2.03;1.27;;;9.10;77.50;;;;;;5041757;28;20144;-66
2023/03/29 05:06:47;;;;;;;2.47;1.30;;;9.00;77.60;;;;;;5040602;28;20099;-66
2023/03/29 05:09:13;;;;;;;1.02;0.93;;;9.10;77.80;;;;;;5039312;28;20037;-65
2023/03/29 05:11:39;;;;;;;0.80;0.65;;;9.10;77.80;;;;;;5037073;28;20029;-67
2023/03/29 05:14:06;;;;;;;1.67;0.85;;;9.10;77.80;;;;;;5040421;28;20388;-65
2023/03/29 05:16:33;;;;;;;1.70;1.38;;;9.10;77.80;;;;;;5045849;28;20032;-64
2023/03/29 05:19:02;;;;;;;1.52;1.20;;;9.10;77.80;;;;;;5045628;28;20086;-65
2023/03/29 05:21:28;;;;;;;2.30;1.27;;;9.10;77.80;;;;;;5043296;28;20491;-66
2023/03/29 05:23:54;;;;;;;1.40;0.93;;;9.10;77.80;;;;;;5046429;28;20025;-66
2023/03/29 05:26:22;;;;;;;2.03;1.17;;;9.10;77.80;;;;;;5046675;28;20033;-66
2023/03/29 05:28:49;;;;;;;1.75;1.15;;;9.10;77.80;;;;;;5047283;28;20096;-66
2023/03/29 05:31:15;;;;;;;1.15;0.75;;;9.10;77.80;;;;;;5046290;28;20024;-67
2023/03/29 05:33:42;;;;;;;1.98;1.15;;;9.10;77.80;;;;;;5048183;28;20037;-66
2023/03/29 05:36:12;;;;;;;1.65;1.17;;;9.10;77.90;;;;;;5046523;28;20574;-67
2023/03/29 05:38:39;;;;;;;0.80;0.80;;;9.20;77.90;;;;;;5040692;28;20028;-65
2023/03/29 05:41:05;;;;;;;1.08;0.90;;;9.20;77.90;;;;;;5040890;28;20148;-65
2023/03/29 05:43:31;;;;;;;1.10;1.00;;;9.20;77.90;;;;;;5045884;28;20476;-66
2023/03/29 05:45:57;;;;;;;1.33;0.85;;;9.20;77.80;;;;;;5030955;28;20025;-66
2023/03/29 05:48:24;;;;;;;2.70;1.10;;;9.30;77.80;;;;;;5046978;28;20495;-66
2023/03/29 05:50:51;;;;;;;1.15;0.85;;;9.20;77.80;;;;;;5044319;28;20025;-66
2023/03/29 05:53:17;;;;;;;1.00;0.98;;;9.30;77.80;;;;;;5044651;28;20033;-67
2023/03/29 05:55:44;;;;;;;1.23;1.10;;;9.30;77.90;;;;;;5044311;28;20060;-65
2023/03/29 05:58:11;;;;;;;1.75;1.05;;;9.30;78.00;;;;;;5047514;28;20111;-66
2023/03/29 06:00:38;;;;;;;1.30;1.00;;;9.30;78.00;;;;;;5047084;28;20130;-67
2023/03/29 06:03:06;;;;;;;1.50;1.27;;;9.30;78.10;;;;;;5048967;28;20052;-66
2023/03/29 06:05:32;;;;;;;1.30;1.20;;;9.30;78.10;;;;;;5040128;28;20045;-65
2023/03/29 06:07:58;;;;;;;1.67;1.08;;;9.30;78.20;;;;;;5042642;28;20032;-66
2023/03/29 06:10:24;;;;;;;1.15;0.90;;;9.30;78.20;;;;;;5046755;28;20029;-66
2023/03/29 06:12:50;;;;;;;1.10;0.77;;;9.30;78.20;;;;;;5047523;28;20021;-66
2023/03/29 06:15:16;;;;;;;1.58;1.30;;;9.40;78.20;;;;;;5046083;28;20388;-65
2023/03/29 06:17:46;;;;;;;2.13;1.10;;;9.30;78.20;;;;;;5046898;28;20065;-66
2023/03/29 06:20:13;;;;;;;1.25;0.90;;;9.30;78.20;;;;;;5044881;28;20033;-65
2023/03/29 06:22:40;;;;;;;5.45;1.25;;;9.40;78.20;;;;;;5027474;28;20057;-67
2023/03/29 06:25:08;;;;;;;1.17;0.95;;;9.40;78.20;;;;;;5037415;28;20026;-66
2023/03/29 06:27:34;;;;;;;1.75;0.77;;;9.40;78.30;;;;;;5047423;28;20036;-66
2023/03/29 06:30:00;;;;;;;1.17;0.85;;;9.40;78.20;;;;;;5045319;28;20029;-65
2023/03/29 06:32:26;;;;;;;1.77;0.90;;;9.50;78.20;;;;;;5042544;28;20021;-65
2023/03/29 06:34:53;;;;;;;1.17;0.90;;;9.50;78.20;;;;;;5043035;28;20027;-66
2023/03/29 06:37:19;;;;;;;1.92;1.33;;;9.50;77.90;;;;;;5047454;28;20029;-66
2023/03/29 06:39:44;;;;;;;1.17;1.08;;;9.60;77.80;;;;;;5049017;28;20473;-66
2023/03/29 06:42:10;;;;;;;2.08;1.08;;;9.60;77.70;;;;;;5044237;28;20140;-67
2023/03/29 06:44:36;;;;;;;1.33;1.05;;;9.60;77.50;;;;;;5042592;28;20029;-67
2023/03/29 06:47:02;;;;;;;1.35;1.00;;;9.70;77.50;;;;;;5043109;28;20107;-66
2023/03/29 06:49:28;;;;;;;1.58;0.80;;;9.80;77.40;;;;;;5044414;28;20476;-67
2023/03/29 06:51:55;;;;;;;1.40;1.00;;;9.80;77.20;;;;;;5042780;28;20107;-65
2023/03/29 06:54:21;;;;;;;1.80;1.42;;;9.80;77.10;;;;;;5045293;28;20033;-67
2023/03/29 06:56:48;;;;;;;2.22;1.27;;;9.90;77.10;;;;;;5038608;28;20033;-66
2023/03/29 06:59:13;;;;;;;2.15;1.40;;;9.90;76.90;;;;;;5047371;28;20154;-66
2023/03/29 07:01:39;;;;;;;2.83;1.27;;;9.90;76.70;;;;;;5044824;28;20588;-65
2023/03/29 07:04:07;;;;;;;2.25;1.35;;;9.90;76.50;;;;;;5038798;28;20053;-67
2023/03/29 07:06:35;;;;;;;2.15;1.33;;;9.90;76.40;;;;;;5050154;28;20067;-67
2023/03/29 07:09:03;;;;;;;1.85;1.23;;;9.90;76.60;;;;;;5044474;28;20380;-69
2023/03/29 07:11:32;;;;;;;4.35;1.55;;;9.90;76.70;;;;;;5047311;28;20116;-67
2023/03/29 07:13:58;;;;;;;1.70;1.02;;;9.90;76.50;;;;;;5047934;28;20017;-68
2023/03/29 07:16:24;;;;;;;2.15;1.75;;;10.00;76.50;;;;;;5050463;28;20079;-69
2023/03/29 07:18:50;;;;;;;2.33;1.40;;;10.10;76.50;;;;;;5051011;28;20024;-68
2023/03/29 07:21:16;;;;;;;2.05;1.58;;;10.10;76.40;;;;;;5050082;28;20029;-67
2023/03/29 07:23:42;;;;;;;3.22;1.38;;;10.10;76.50;;;;;;5050766;28;20029;-68
2023/03/29 07:26:09;;;;;;;4.97;1.50;;;10.10;76.60;;;;;;5026339;28;20140;-68
2023/03/29 07:28:36;;;;;;;2.13;1.20;;;10.10;76.60;;;;;;5047510;28;20087;-67
2023/03/29 07:31:05;;;;;;;4.53;1.67;;;10.20;76.60;;;;;;5047292;28;20021;-65
2023/03/29 07:33:31;;;;;;;1.23;1.13;;;10.20;76.50;;;;;;5031719;28;20108;-65
2023/03/29 07:35:57;;;;;;;1.58;1.08;;;10.30;76.40;;;;;;5046239;28;20041;-66
2023/03/29 07:38:24;;;;;;;2.28;1.60;;;10.30;76.20;;;;;;5051337;28;20040;-67
2023/03/29 07:40:50;;;;;;;1.60;1.08;;;10.30;76.10;;;;;;5048933;28;20029;-66
2023/03/29 07:43:17;;;;;;;2.35;1.40;;;10.40;76.00;;;;;;5047980;28;20654;-66
2023/03/29 07:45:43;;;;;;;7.10;1.60;;;10.40;75.90;;;;;;5045759;28;20074;-67
2023/03/29 07:48:09;;;;;;;6.47;1.55;;;10.50;75.80;;;;;;5043339;28;20029;-65
2023/03/29 07:50:35;;;;;;;3.05;1.55;;;10.60;75.90;;;;;;5038006;28;20029;-68
2023/03/29 07:53:01;;;;;;;3.58;1.40;;;10.60;75.50;;;;;;5047946;28;20096;-66
2023/03/29 07:55:27;;;;;;;2.53;1.05;;;10.70;75.50;;;;;;5041751;28;20023;-66
2023/03/29 07:57:53;;;;;;;2.03;1.10;;;10.70;75.20;;;;;;5040808;28;20033;-67
2023/03/29 08:00:20;;;;;;;2.17;1.42;;;10.70;75.10;;;;;;5040463;28;20037;-66
2023/03/29 08:02:56;;;;;;;4.00;1.10;;;10.80;75.10;;;;;;5035103;28;20034;-66
2023/03/29 08:05:22;;;;;;;4.05;1.35;;;10.80;74.80;;;;;;5040419;28;20053;-67
2023/03/29 08:07:49;;;;;;;1.05;0.98;;;10.90;74.60;;;;;;5037137;28;20749;-67
2023/03/29 08:10:18;;;;;;;1.52;1.05;;;11.00;74.50;;;;;;5045067;28;20047;-66
2023/03/29 08:12:44;;;;;;;1.42;0.90;;;11.10;74.40;;;;;;5043728;28;20387;-67
2023/03/29 08:15:12;;;;;;;4.38;1.70;;;11.00;74.00;;;;;;5038500;28;20083;-67
2023/03/29 08:17:37;;;;;;;3.72;1.60;;;11.10;74.00;;;;;;5048742;28;20048;-65
2023/03/29 08:20:04;;;;;;;2.92;1.55;;;11.10;74.00;;;;;;5047179;28;20025;-65
2023/03/29 08:22:34;;;;;;;2.00;1.33;;;11.10;73.80;;;;;;5040533;28;20473;-66
2023/03/29 08:25:00;;;;;;;3.58;1.77;;;11.20;73.70;;;;;;5042794;28;20029;-66
2023/03/29 08:27:26;;;;;;;3.78;1.50;;;11.20;73.60;;;;;;5036729;28;20026;-67
2023/03/29 08:29:52;;;;;;;3.88;1.60;;;11.20;73.30;;;;;;5036585;28;20092;-67
2023/03/29 08:32:17;;;;;;;3.80;1.92;;;11.20;73.30;;;;;;5042770;28;20051;-67
2023/03/29 08:34:43;;;;;;;5.93;1.48;;;11.30;73.20;;;;;;5043373;28;20040;-68
2023/03/29 08:37:09;;;;;;;3.17;1.60;;;11.30;73.70;;;;;;5027994;28;20037;-67
2023/03/29 08:39:36;;;;;;;1.58;1.27;;;11.30;73.10;;;;;;5039584;28;20609;-67
2023/03/29 08:42:21;;;;;;;4.43;1.92;;;11.40;73.20;;;;;;5041218;28;20124;-67
2023/03/29 08:45:02;;;;;;;5.60;1.42;;;11.40;72.80;;;;;;5038964;28;20025;-68
2023/03/29 08:48:03;;;;;;;2.35;1.50;;;11.40;72.90;;;;;;5037242;28;20421;-67
2023/03/29 08:50:35;;;;;;;1.70;1.00;;;11.50;72.70;;;;;;5023894;28;20055;-68
2023/03/29 08:53:11;;;;;;;4.75;1.63;;;11.60;72.60;;;;;;5036414;28;20548;-67
2023/03/29 08:55:41;;;;;;;4.93;2.42;;;11.70;72.50;;;;;;5047809;28;20036;-67
2023/03/29 08:58:13;;;;;;;3.45;1.75;;;11.80;72.30;;;;;;5042444;28;20499;-68
2023/03/29 09:00:44;;;;;;;5.20;2.20;;;11.80;72.10;;;;;;5038706;28;20041;-67
2023/03/29 09:03:30;;;;;;;3.22;1.77;;;11.90;72.60;;;;;;5048418;28;20048;-67
2023/03/29 09:06:01;;;;;;;6.32;2.28;;;12.00;71.90;;;;;;5049288;28;20408;-68
2023/03/29 09:08:27;;;;;;;4.45;1.88;;;12.20;71.80;;;;;;5036796;28;20516;-67
2023/03/29 09:11:03;;;;;;;3.38;1.83;;;12.40;71.50;;;;;;5038537;28;20113;-68
2023/03/29 09:13:34;;;;;;;3.03;1.92;;;12.50;71.10;;;;;;5038626;28;20111;-67
2023/03/29 09:16:07;;;;;;;6.97;2.45;;;12.50;71.00;;;;;;5049231;28;20503;-67
2023/03/29 09:18:39;;;;;;;4.13;2.58;;;12.50;71.30;;;;;;5048185;28;20449;-65
2023/03/29 09:21:13;;;;;;;6.18;3.58;;;12.40;71.70;;;;;;5047521;28;20037;-65
2023/03/29 09:23:45;;;;;;;3.17;1.95;;;12.20;72.30;;;;;;5044980;28;20364;-67
2023/03/29 09:26:31;;;;;;;3.45;2.00;;;12.20;72.60;;;;;;5048551;28;20097;-67
2023/03/29 09:29:13;;;;;;;4.63;2.10;;;12.20;72.80;;;;;;5046697;28;20032;-67
2023/03/29 09:31:45;;;;;;;5.95;1.83;;;12.20;73.10;;;;;;5047005;28;20031;-67
2023/03/29 09:34:21;;;;;;;4.47;2.53;;;12.30;73.50;;;;;;5048928;28;20377;-67
2023/03/29 09:36:55;;;;;;;5.10;2.17;;;12.30;73.80;;;;;;5048341;28;20482;-67
2023/03/29 09:39:22;;;;;;;3.70;1.90;;;12.40;74.10;;;;;;5049120;28;20029;-66
2023/03/29 09:42:15;;;;;;;4.07;2.15;;;12.40;74.20;;;;;;5043962;28;20025;-66
2023/03/29 09:45:07;;;;;;;4.97;2.38;;;12.50;74.00;;;;;;5045565;28;20494;-67
2023/03/29 09:48:13;;;;;;;3.20;1.95;;;12.60;74.00;;;;;;5036080;28;20091;-67
2023/03/29 09:50:45;;;;;;;4.60;3.03;;;12.60;74.00;;;;;;5035261;28;20033;-67
2023/03/29 09:53:14;;;;;;;9.40;2.63;;;12.60;74.20;;;;;;5039017;28;20055;-65
2023/03/29 09:55:41;;;;;;;4.03;2.72;;;12.60;74.30;;;;;;5039925;28;20049;-66
2023/03/29 09:58:15;;;;;;;4.35;2.90;;;12.70;74.30;;;;;;5047360;28;20053;-65
2023/03/29 10:00:41;;;;;;;5.13;2.63;;;12.80;74.10;;;;;;5043840;28;20036;-65
2023/03/29 10:03:07;;;;;;;5.05;2.35;;;12.90;74.20;;;;;;5042047;28;20040;-68
2023/03/29 10:05:41;;;;;;;4.75;2.72;;;12.90;74.00;;;;;;5042621;28;20058;-65
2023/03/29 10:08:28;;;;;;;5.25;2.78;;;12.90;74.20;;;;;;5047082;28;20103;-66
2023/03/29 10:10:56;;;;;;;4.22;2.35;;;12.90;74.30;;;;;;5045955;28;20032;-68
2023/03/29 10:13:31;;;;;;;4.03;2.35;;;13.00;74.40;;;;;;5046483;28;20557;-67
2023/03/29 10:15:57;;;;;;;4.55;2.42;;;13.00;74.30;;;;;;5049367;28;20230;-66
2023/03/29 10:18:25;;;;;;;3.45;2.95;;;13.00;74.30;;;;;;5040263;28;20100;-67
2023/03/29 10:20:58;;;;;;;6.97;2.72;;;13.00;74.50;;;;;;5037179;28;20025;-67
2023/03/29 10:23:28;;;;;;;5.95;3.13;;;13.00;74.70;;;;;;5049320;28;20520;-68
2023/03/29 10:25:54;;;;;;;8.93;3.10;;;12.90;74.90;;;;;;5041972;28;20401;-67
2023/03/29 10:28:21;;;;;;;5.55;3.30;;;13.00;75.00;;;;;;5028803;28;20029;-67
2023/03/29 10:30:54;;;;;;;3.53;2.40;;;13.10;74.90;;;;;;5043729;28;20060;-67
2023/03/29 10:33:22;;;;;;;6.60;3.85;;;13.30;74.60;;;;;;5043288;28;20513;-67
2023/03/29 10:35:49;;;;;;;2.72;2.00;;;13.40;74.30;;;;;;5045740;28;20076;-65
2023/03/29 10:38:21;;;;;;;3.63;2.17;;;13.50;74.20;;;;;;5049803;28;20060;-68
2023/03/29 10:40:50;;;;;;;3.33;2.55;;;13.50;74.00;;;;;;5049585;28;20036;-67
2023/03/29 10:43:16;;;;;;;3.33;2.15;;;13.50;74.00;;;;;;5044917;28;20370;-68
2023/03/29 10:45:42;;;;;;;3.47;2.30;;;13.50;74.10;;;;;;5049378;28;20148;-68
2023/03/29 10:48:13;;;;;;;3.95;2.33;;;13.60;74.10;;;;;;5047975;28;20036;-65
2023/03/29 10:50:40;;;;;;;6.13;3.58;;;13.70;74.00;;;;;;5041076;28;20728;-66
2023/03/29 10:53:23;;;;;;;5.95;2.80;;;13.70;73.90;;;;;;5043044;28;20049;-65
2023/03/29 10:56:17;;;;;;;3.17;2.03;;;13.70;73.90;;;;;;5046227;28;20136;-66
2023/03/29 10:59:00;;;;;;;4.75;2.85;;;13.70;74.00;;;;;;5043829;28;20483;-66
2023/03/29 11:01:51;;;;;;;4.97;2.65;;;13.60;74.20;;;;;;5042449;28;20498;-65
2023/03/29 11:04:35;;;;;;;4.57;2.60;;;13.60;74.40;;;;;;5048230;28;20032;-66
2023/03/29 11:07:32;;;;;;;5.47;2.53;;;13.60;74.70;;;;;;5049157;28;20078;-66
2023/03/29 11:10:25;;;;;;;6.10;2.78;;;13.50;75.10;;;;;;5043701;28;20017;-68
2023/03/29 11:12:56;;;;;;;5.40;2.70;;;13.50;75.30;;;;;;5049244;28;20527;-67
2023/03/29 11:15:44;;;;;;;4.40;2.60;;;13.60;75.40;;;;;;5050034;28;20024;-66
2023/03/29 11:18:42;;;;;;;5.57;3.00;;;13.60;75.70;;;;;;5049619;28;20074;-66
2023/03/29 11:21:23;;;;;;;8.52;3.08;;;13.70;75.70;;;;;;5032467;28;20405;-66
2023/03/29 11:23:54;;;;;;;5.70;3.22;;;13.80;75.60;;;;;;5036618;28;20480;-67
2023/03/29 11:26:26;;;;;;;3.00;2.10;;;13.80;75.50;;;;;;5049352;28;20039;-67
2023/03/29 11:29:01;;;;;;;5.07;2.75;;;13.90;75.40;;;;;;5047991;28;20020;-67
2023/03/29 11:31:42;;;;;;;6.63;2.63;;;13.80;75.20;;;;;;5042933;28;20476;-68
2023/03/29 11:34:46;;;;;;;3.20;2.47;;;13.80;75.40;;;;;;5042243;28;20586;-67
2023/03/29 11:37:27;;;;;;;3.97;2.47;;;13.90;75.30;;;;;;5048149;28;20021;-67
2023/03/29 11:40:20;;;;;;;2.78;2.15;;;13.80;75.30;;;;;;5049859;28;20468;-67
2023/03/29 11:42:47;;;;;;;;;;;13.90;75.30;;;;;;5043215;28;20021;-66
2023/03/29 11:45:25;;;;;;;7.35;2.08;;;13.90;75.10;;;;;;5049447;28;19909;-65
2023/03/29 11:47:52;;;;;;;4.35;2.45;;;13.90;75.10;;;;;;5049648;28;20408;-65
2023/03/29 11:50:25;;;;;;;3.65;2.00;;;14.00;75.10;;;;;;5029543;28;20021;-67
2023/03/29 11:53:04;;;;;;;2.78;2.05;;;14.00;75.00;;;;;;5048837;28;20104;-67
2023/03/29 11:55:36;;;;;;;3.97;1.95;;;14.00;74.90;;;;;;5043177;28;20052;-68
2023/03/29 11:58:29;;;;;;;4.57;2.30;;;14.10;74.90;;;;;;5049121;28;20024;-67
2023/03/29 12:01:04;;;;;;;3.58;1.90;;;14.10;74.90;;;;;;5040918;28;20029;-68
2023/03/29 12:04:00;;;;;;;3.60;1.92;;;13.90;75.10;;;;;;5039283;28;20374;-65
2023/03/29 12:06:28;;;;;;;3.88;2.03;;;13.90;75.10;;;;;;5035145;28;20120;-66
2023/03/29 12:09:01;;;;;;;2.67;2.13;;;13.90;75.30;;;;;;5041290;28;20021;-66
2023/03/29 12:11:51;;;;;;;6.88;2.38;;;13.80;75.60;;;;;;5043744;28;20025;-66
2023/03/29 12:14:25;;;;;;;3.60;2.53;;;13.70;75.80;;;;;;5040022;28;20116;-66
2023/03/29 12:17:01;;;;;;;4.25;2.65;;;13.70;75.90;;;;;;5037796;28;20148;-67
2023/03/29 12:19:52;;;;;;;3.05;1.77;;;13.70;76.50;;;;;;5046167;28;20035;-67
2023/03/29 12:22:18;;;;;;;3.92;2.72;;;13.80;75.90;;;;;;5043017;28;20106;-67
2023/03/29 12:24:46;;;;;;;3.85;2.38;;;13.80;75.90;;;;;;5050676;28;20029;-66
2023/03/29 12:27:23;;;;;;;3.67;2.35;;;13.80;76.00;;;;;;5032180;28;20043;-66
2023/03/29 12:30:26;;;;;;;3.13;2.30;;;13.80;76.00;;;;;;5042823;28;20033;-67
2023/03/29 12:33:00;;;;;;;3.45;2.28;;;13.80;76.00;;;;;;5045996;28;20655;-68
2023/03/29 12:36:01;;;;;;;3.97;2.35;;;13.70;76.20;;;;;;5036516;28;20025;-68
2023/03/29 12:38:29;;;;;;;4.60;2.30;;;13.70;76.30;;;;;;5043043;28;20039;-67
2023/03/29 12:40:58;;;;;;;3.75;2.33;;;13.70;76.40;;;;;;5046481;28;20059;-67
2023/03/29 12:43:30;;;;;;;2.80;2.13;;;13.80;76.30;;;;;;5036464;28;20029;-67
2023/03/29 12:46:04;;;;;;;3.13;2.38;;;13.90;76.40;;;;;;5041827;28;20075;-67
2023/03/29 12:48:30;;;;;;;5.35;2.38;;;13.90;76.20;;;;;;5037340;28;20360;-67
2023/03/29 12:51:06;;;;;;;4.82;2.22;;;13.90;76.10;;;;;;5038605;28;20051;-67
2023/03/29 12:53:45;;;;;;;3.72;2.30;;;14.00;76.10;;;;;;5036375;28;20496;-69
2023/03/29 12:56:21;;;;;;;3.55;2.60;;;14.00;76.10;;;;;;5044059;28;20133;-69
2023/03/29 12:59:09;;;;;;;3.67;2.45;;;13.90;76.20;;;;;;5047260;28;20032;-69
2023/03/29 13:01:38;;;;;;;2.83;2.20;;;13.90;76.30;;;;;;5030651;28;20080;-71
2023/03/29 13:04:36;;;;;;;3.90;2.83;;;14.00;76.40;;;;;;5042619;28;20036;-70
2023/03/29 13:07:04;;;;;;;4.07;2.08;;;14.00;76.30;;;;;;5040203;28;20059;-71
2023/03/29 13:09:52;;;;;;;2.30;1.58;;;13.90;76.50;;;;;;5035776;28;20087;-74
2023/03/29 13:12:48;;;;;;;3.33;2.20;;;13.90;76.70;;;;;;5043733;28;20041;-73
2023/03/29 13:15:14;;;;;;;3.25;1.85;;;13.80;76.80;;;;;;5040509;28;20041;-74